Time;durP1;ratioP1;P1;durP2;ratioP2;P2;SDS_P1;SDS_P2;PMS_P1;PMS_P2;Temp;Humidity;BMP_temperature;BMP_pressure;BME280_temperature;BME280_humidity;BME280_pressure;Samples;Min_cycle;Max_cycle;Signal;HPM_P1;HPM_P2
2024/01/30 00:01:57;;;;;;;27.17;16.27;;;;;;;;;;5004580;28;20203;-67
2024/01/30 00:04:26;;;;;;;30.63;17.20;;;;;;;;;;5006822;28;20218;-66
2024/01/30 00:06:53;;;;;;;30.67;17.37;;;;;;;;;;5006410;28;21431;-67
2024/01/30 00:09:20;;;;;;;31.77;18.03;;;;;;;;;;5002136;28;20560;-66
2024/01/30 00:11:48;;;;;;;33.37;18.20;;;;;;;;;;4989225;28;20231;-68
2024/01/30 00:14:15;;;;;;;32.30;19.00;;;;;;;;;;5007039;28;20227;-67
2024/01/30 00:16:42;;;;;;;32.17;18.40;;;;;;;;;;5024916;28;20207;-70
2024/01/30 00:19:09;;;;;;;26.87;16.97;;;;;;;;;;5018417;28;20207;-64
2024/01/30 00:21:37;;;;;;;22.67;14.83;;;;;;;;;;5013892;28;20216;-66
2024/01/30 00:24:04;;;;;;;21.80;13.47;;;;;;;;;;5007888;28;20242;-67
2024/01/30 00:26:32;;;;;;;16.73;10.70;;;;;;;;;;5009725;28;20208;-68
2024/01/30 00:28:59;;;;;;;16.80;10.70;;;;;;;;;;5007761;28;20810;-64
2024/01/30 00:31:26;;;;;;;35.23;17.17;;;;;;;;;;5006480;28;20231;-65
2024/01/30 00:33:54;;;;;;;34.13;16.50;;;;;;;;;;4988518;28;20230;-66
2024/01/30 00:36:22;;;;;;;36.23;16.90;;;;;;;;;;5017169;28;20203;-66
2024/01/30 00:38:49;;;;;;;28.73;14.97;;;;;;;;;;5006873;28;20211;-66
2024/01/30 00:41:19;;;;;;;27.00;14.20;;;;;;;;;;5009897;28;20205;-67
2024/01/30 00:43:46;;;;;;;22.13;12.83;;;;;;;;;;5006760;28;20228;-68
2024/01/30 00:46:13;;;;;;;24.87;13.20;;;;;;;;;;5004143;28;20208;-67
2024/01/30 00:48:41;;;;;;;22.37;12.63;;;;;;;;;;5007128;28;20261;-65
2024/01/30 00:51:08;;;;;;;22.83;12.87;;;;;;;;;;5007004;28;20298;-67
2024/01/30 00:53:36;;;;;;;18.10;11.83;;;;;;;;;;5013669;28;20269;-67
2024/01/30 00:56:03;;;;;;;20.80;12.47;;;;;;;;;;5016806;28;20219;-67
2024/01/30 00:58:30;;;;;;;20.53;13.00;;;;;;;;;;5004701;28;20212;-68
2024/01/30 01:00:58;;;;;;;17.93;12.83;;;;;;;;;;5008555;28;20212;-65
2024/01/30 01:03:25;;;;;;;17.23;11.23;;;;;;;;;;5009737;28;20207;-66
2024/01/30 01:05:53;;;;;;;13.20;10.23;;;;;;;;;;5006046;28;20275;-67
2024/01/30 01:08:20;;;;;;;13.60;9.77;;;;;;;;;;5005294;28;20270;-67
2024/01/30 01:10:47;;;;;;;11.73;9.20;;;;;;;;;;5006468;28;20216;-66
2024/01/30 01:13:15;;;;;;;15.53;9.27;;;;;;;;;;5005449;28;20223;-67
2024/01/30 01:15:42;;;;;;;13.30;9.37;;;;;;;;;;5001764;28;20692;-67
2024/01/30 01:18:10;;;;;;;12.53;8.97;;;;;;;;;;5006652;28;20211;-67
2024/01/30 01:20:37;;;;;;;13.00;10.20;;;;;;;;;;5005531;28;20246;-67
2024/01/30 01:23:04;;;;;;;12.50;8.90;;;;;;;;;;4989137;28;20207;-65
2024/01/30 01:25:31;;;;;;;10.97;9.03;;;;;;;;;;5002366;28;20227;-65
2024/01/30 01:28:01;;;;;;;11.23;8.30;;;;;;;;;;5001394;28;21176;-66
2024/01/30 01:30:29;;;;;;;12.57;9.80;;;;;;;;;;5003398;28;20208;-67
2024/01/30 01:32:57;;;;;;;13.47;9.83;;;;;;;;;;5002565;28;20263;-65
2024/01/30 01:35:25;;;;;;;13.33;9.73;;;;;;;;;;5003809;28;20258;-65
2024/01/30 01:37:56;;;;;;;14.90;9.83;;;;;;;;;;5006565;28;20210;-67
2024/01/30 01:40:23;;;;;;;16.20;10.70;;;;;;;;;;5003194;28;20288;-65
2024/01/30 01:42:54;;;;;;;13.87;10.60;;;;;;;;;;5002408;28;20208;-66
2024/01/30 01:45:22;;;;;;;13.87;9.93;;;;;;;;;;5002341;28;20255;-66
2024/01/30 01:47:52;;;;;;;15.30;10.23;;;;;;;;;;5005523;28;20211;-66
2024/01/30 01:50:21;;;;;;;14.50;10.20;;;;;;;;;;5010573;28;20208;-67
2024/01/30 01:52:49;;;;;;;14.17;10.17;;;;;;;;;;5007304;28;20227;-66
2024/01/30 01:55:21;;;;;;;14.33;10.03;;;;;;;;;;4999896;28;20228;-66
2024/01/30 01:57:49;;;;;;;11.63;9.57;;;;;;;;;;4993893;28;20203;-66
2024/01/30 02:00:17;;;;;;;15.33;10.60;;;;;;;;;;5003107;28;20204;-67
2024/01/30 02:02:46;;;;;;;13.97;10.17;;;;;;;;;;5004300;28;20664;-66
2024/01/30 02:05:13;;;;;;;14.03;9.90;;;;;;;;;;5002285;28;20227;-66
2024/01/30 02:07:41;;;;;;;13.10;9.70;;;;;;;;;;5001342;28;20223;-67
2024/01/30 02:10:12;;;;;;;10.87;8.53;;;;;;;;;;5015398;28;20262;-66
2024/01/30 02:12:40;;;;;;;11.73;8.37;;;;;;;;;;5004318;28;20244;-67
2024/01/30 02:15:08;;;;;;;8.43;6.70;;;;;;;;;;4999454;28;20251;-66
2024/01/30 02:17:35;;;;;;;8.30;7.00;;;;;;;;;;5004163;28;20204;-66
2024/01/30 02:20:03;;;;;;;8.73;6.70;;;;;;;;;;5004615;28;20630;-66
2024/01/30 02:22:32;;;;;;;7.57;6.33;;;;;;;;;;5002876;28;20216;-67
2024/01/30 02:24:59;;;;;;;7.23;6.23;;;;;;;;;;5016161;28;20228;-66
2024/01/30 02:27:27;;;;;;;7.23;5.77;;;;;;;;;;5003073;28;20216;-66
2024/01/30 02:29:54;;;;;;;6.50;5.67;;;;;;;;;;5005490;28;20680;-66
2024/01/30 02:32:21;;;;;;;7.70;5.00;;;;;;;;;;5013758;28;20230;-67
2024/01/30 02:34:49;;;;;;;6.47;5.00;;;;;;;;;;5006226;28;20275;-67
2024/01/30 02:37:17;;;;;;;7.00;4.93;;;;;;;;;;5009548;28;20580;-67
2024/01/30 02:39:44;;;;;;;6.63;5.07;;;;;;;;;;5005381;28;20222;-67
2024/01/30 02:42:12;;;;;;;5.90;4.60;;;;;;;;;;4988500;28;20257;-67
2024/01/30 02:44:39;;;;;;;6.13;5.10;;;;;;;;;;5011607;28;20258;-65
2024/01/30 02:47:06;;;;;;;7.43;5.37;;;;;;;;;;5008063;28;20222;-67
2024/01/30 02:49:34;;;;;;;7.77;4.83;;;;;;;;;;5005888;28;20211;-66
2024/01/30 02:52:01;;;;;;;7.37;5.40;;;;;;;;;;5007479;28;20313;-67
2024/01/30 02:54:30;;;;;;;7.83;5.70;;;;;;;;;;5008071;28;20318;-68
2024/01/30 02:56:58;;;;;;;6.33;4.83;;;;;;;;;;5010845;28;20212;-67
2024/01/30 02:59:25;;;;;;;5.80;4.90;;;;;;;;;;5017747;28;20291;-67
2024/01/30 03:01:52;;;;;;;6.07;4.80;;;;;;;;;;5004379;28;20277;-67
2024/01/30 03:04:20;;;;;;;7.13;4.77;;;;;;;;;;5004156;28;20223;-66
2024/01/30 03:06:47;;;;;;;7.20;4.57;;;;;;;;;;4989377;28;20207;-66
2024/01/30 03:09:17;;;;;;;4.80;4.30;;;;;;;;;;5006418;28;20214;-66
2024/01/30 03:11:45;;;;;;;4.30;3.90;;;;;;;;;;5008215;28;20207;-66
2024/01/30 03:14:12;;;;;;;8.73;4.67;;;;;;;;;;5003838;28;20318;-66
2024/01/30 03:16:40;;;;;;;4.90;4.20;;;;;;;;;;5007367;28;20391;-67
2024/01/30 03:19:08;;;;;;;5.40;4.50;;;;;;;;;;5007656;28;20207;-64
2024/01/30 03:21:36;;;;;;;5.23;4.20;;;;;;;;;;5008184;28;20199;-64
2024/01/30 03:24:03;;;;;;;10.60;6.23;;;;;;;;;;5013552;28;20239;-66
2024/01/30 03:26:31;;;;;;;6.40;4.77;;;;;;;;;;5010498;28;20306;-65
2024/01/30 03:28:58;;;;;;;5.70;4.70;;;;;;;;;;4996203;28;20557;-65
2024/01/30 03:31:25;;;;;;;6.33;4.53;;;;;;;;;;5006049;28;20208;-67
2024/01/30 03:33:53;;;;;;;6.10;4.40;;;;;;;;;;5012301;28;20231;-67
2024/01/30 03:36:21;;;;;;;6.17;4.87;;;;;;;;;;5018296;28;21035;-66
2024/01/30 03:38:48;;;;;;;6.00;5.27;;;;;;;;;;5010730;28;20208;-64
2024/01/30 03:41:15;;;;;;;7.33;5.23;;;;;;;;;;5011922;28;20207;-66
2024/01/30 03:43:43;;;;;;;7.60;6.20;;;;;;;;;;5002902;28;20227;-65
2024/01/30 03:46:12;;;;;;;6.83;5.93;;;;;;;;;;5005318;28;20207;-68
2024/01/30 03:48:39;;;;;;;8.17;5.87;;;;;;;;;;5015495;28;20231;-65
2024/01/30 03:51:07;;;;;;;7.37;5.23;;;;;;;;;;5019086;28;20215;-63
2024/01/30 03:53:35;;;;;;;5.90;5.07;;;;;;;;;;5017074;28;20305;-65
2024/01/30 03:56:03;;;;;;;6.37;4.60;;;;;;;;;;5024416;28;20744;-66
2024/01/30 03:58:30;;;;;;;7.77;5.73;;;;;;;;;;5014636;28;20207;-66
2024/01/30 04:00:57;;;;;;;10.03;6.10;;;;;;;;;;5008830;28;20207;-64
2024/01/30 04:03:25;;;;;;;11.37;6.37;;;;;;;;;;5009464;28;20266;-67
2024/01/30 04:05:53;;;;;;;8.00;5.47;;;;;;;;;;5008967;28;20299;-67
2024/01/30 04:08:21;;;;;;;8.37;5.40;;;;;;;;;;4992764;28;20926;-67
2024/01/30 04:10:48;;;;;;;5.53;4.33;;;;;;;;;;5008838;28;20258;-66
2024/01/30 04:13:15;;;;;;;9.20;5.87;;;;;;;;;;5008198;28;20222;-67
2024/01/30 04:15:42;;;;;;;8.67;5.70;;;;;;;;;;5025790;28;20325;-66
2024/01/30 04:18:10;;;;;;;7.47;5.00;;;;;;;;;;5010614;28;21492;-67
2024/01/30 04:20:37;;;;;;;4.07;3.57;;;;;;;;;;5010346;28;20199;-67
2024/01/30 04:23:04;;;;;;;6.87;4.83;;;;;;;;;;5013706;28;20224;-66
2024/01/30 04:25:32;;;;;;;5.33;4.60;;;;;;;;;;5009669;28;21016;-65
2024/01/30 04:27:59;;;;;;;4.90;3.83;;;;;;;;;;5011728;28;20312;-67
2024/01/30 04:30:26;;;;;;;3.97;3.57;;;;;;;;;;5008716;28;20684;-67
2024/01/30 04:32:54;;;;;;;5.67;4.63;;;;;;;;;;5007738;28;20227;-66
2024/01/30 04:35:24;;;;;;;6.47;4.70;;;;;;;;;;5006651;28;20254;-65
2024/01/30 04:37:55;;;;;;;6.57;4.97;;;;;;;;;;5003414;28;20214;-67
2024/01/30 04:40:22;;;;;;;7.87;5.20;;;;;;;;;;5005016;28;20255;-66
2024/01/30 04:42:50;;;;;;;5.97;5.03;;;;;;;;;;5007663;28;20760;-65
2024/01/30 04:45:17;;;;;;;6.10;4.80;;;;;;;;;;5004941;28;20227;-65
2024/01/30 04:47:46;;;;;;;5.07;4.50;;;;;;;;;;5009897;28;20280;-67
2024/01/30 04:50:13;;;;;;;5.53;4.07;;;;;;;;;;5004921;28;20231;-67
2024/01/30 04:52:41;;;;;;;4.33;3.33;;;;;;;;;;5010116;28;20224;-66
2024/01/30 04:55:08;;;;;;;5.40;4.67;;;;;;;;;;5005934;28;20281;-67
2024/01/30 04:57:36;;;;;;;7.07;4.77;;;;;;;;;;5007707;28;20238;-65
2024/01/30 05:00:05;;;;;;;5.93;4.80;;;;;;;;;;5010111;28;20204;-66
2024/01/30 05:02:33;;;;;;;8.07;4.60;;;;;;;;;;5017096;28;20262;-66
2024/01/30 05:05:00;;;;;;;5.70;4.47;;;;;;;;;;5019853;28;20219;-65
2024/01/30 05:07:27;;;;;;;5.27;4.70;;;;;;;;;;5010930;28;20276;-67
2024/01/30 05:09:55;;;;;;;6.30;4.67;;;;;;;;;;5003580;28;20210;-67
2024/01/30 05:12:25;;;;;;;7.00;4.23;;;;;;;;;;5001789;28;20199;-67
2024/01/30 05:14:54;;;;;;;5.60;4.07;;;;;;;;;;5011837;28;20273;-66
2024/01/30 05:17:21;;;;;;;7.13;5.60;;;;;;;;;;5000243;28;20203;-66
2024/01/30 05:19:48;;;;;;;6.57;5.63;;;;;;;;;;5014129;28;20706;-66
2024/01/30 05:22:18;;;;;;;5.93;4.60;;;;;;;;;;5006602;28;20254;-66
2024/01/30 05:24:46;;;;;;;6.10;5.00;;;;;;;;;;4996767;28;20358;-65
2024/01/30 05:27:14;;;;;;;7.17;4.90;;;;;;;;;;4998879;28;20211;-66
2024/01/30 05:29:41;;;;;;;5.83;4.83;;;;;;;;;;5019035;28;20211;-67
2024/01/30 05:32:10;;;;;;;5.17;4.67;;;;;;;;;;5002896;28;20298;-67
2024/01/30 05:34:38;;;;;;;7.17;5.07;;;;;;;;;;4999750;28;20317;-66
2024/01/30 05:37:06;;;;;;;7.97;6.00;;;;;;;;;;5005428;28;20770;-67
2024/01/30 05:39:33;;;;;;;8.10;6.47;;;;;;;;;;4998619;28;20196;-67
2024/01/30 05:42:01;;;;;;;9.70;6.93;;;;;;;;;;4998065;28;20684;-65
2024/01/30 05:44:28;;;;;;;8.03;5.93;;;;;;;;;;5002896;28;20227;-66
2024/01/30 05:46:56;;;;;;;8.10;6.37;;;;;;;;;;5000849;28;20601;-65
2024/01/30 05:49:23;;;;;;;6.17;5.23;;;;;;;;;;5003014;28;20686;-65
2024/01/30 05:51:51;;;;;;;8.37;6.20;;;;;;;;;;5001040;28;20211;-65
2024/01/30 05:54:18;;;;;;;9.73;6.43;;;;;;;;;;5000582;28;20227;-68
2024/01/30 05:56:46;;;;;;;10.20;6.93;;;;;;;;;;4987852;28;20972;-66
2024/01/30 05:59:13;;;;;;;13.43;8.80;;;;;;;;;;5004814;28;20579;-66
2024/01/30 06:01:47;;;;;;;10.00;6.07;;;;;;;;;;5004165;28;20212;-67
2024/01/30 06:04:15;;;;;;;9.83;6.30;;;;;;;;;;4999987;28;20235;-67
2024/01/30 06:06:43;;;;;;;8.93;5.50;;;;;;;;;;5008633;28;20204;-67
2024/01/30 06:09:12;;;;;;;8.90;5.67;;;;;;;;;;5002114;28;20222;-67
2024/01/30 06:11:40;;;;;;;8.30;5.47;;;;;;;;;;5004515;28;20211;-65
2024/01/30 06:14:07;;;;;;;4.90;4.00;;;;;;;;;;5002516;28;20223;-67
2024/01/30 06:16:34;;;;;;;4.83;3.47;;;;;;;;;;4999461;28;20207;-65
2024/01/30 06:19:02;;;;;;;4.20;3.53;;;;;;;;;;5002518;28;20203;-66
2024/01/30 06:21:30;;;;;;;8.13;5.30;;;;;;;;;;5004804;28;20199;-68
2024/01/30 06:23:58;;;;;;;7.67;5.50;;;;;;;;;;5008124;28;20238;-65
2024/01/30 06:26:30;;;;;;;8.33;5.37;;;;;;;;;;5005531;28;20208;-67
2024/01/30 06:29:05;;;;;;;5.40;4.37;;;;;;;;;;5010187;28;20234;-66
2024/01/30 06:31:42;;;;;;;5.93;4.60;;;;;;;;;;5005240;28;20807;-66
2024/01/30 06:34:11;;;;;;;4.13;3.73;;;;;;;;;;4998982;28;20266;-66
2024/01/30 06:36:41;;;;;;;3.77;3.47;;;;;;;;;;5009394;28;20207;-66
2024/01/30 06:39:17;;;;;;;3.50;3.20;;;;;;;;;;5001753;28;20226;-66
2024/01/30 06:41:46;;;;;;;4.33;3.90;;;;;;;;;;5007824;28;20646;-66
2024/01/30 06:44:17;;;;;;;3.83;3.53;;;;;;;;;;5010104;28;20228;-64
2024/01/30 06:46:51;;;;;;;4.43;3.40;;;;;;;;;;5020638;28;21043;-66
2024/01/30 06:49:26;;;;;;;6.27;3.80;;;;;;;;;;5005559;28;20357;-66
2024/01/30 06:51:54;;;;;;;3.50;3.20;;;;;;;;;;5006398;28;20212;-66
2024/01/30 06:54:22;;;;;;;4.43;3.30;;;;;;;;;;5003932;28;20227;-67
2024/01/30 06:56:49;;;;;;;6.83;5.40;;;;;;;;;;5006531;28;20203;-66
2024/01/30 06:59:17;;;;;;;9.03;6.10;;;;;;;;;;5022699;28;20696;-65
2024/01/30 07:01:44;;;;;;;9.13;6.07;;;;;;;;;;5023159;28;20207;-66
2024/01/30 07:04:13;;;;;;;9.57;6.37;;;;;;;;;;4990281;28;20692;-66
2024/01/30 07:06:41;;;;;;;11.57;8.20;;;;;;;;;;5005349;28;20207;-66
2024/01/30 07:09:08;;;;;;;9.93;7.00;;;;;;;;;;5006310;28;21394;-66
2024/01/30 07:11:38;;;;;;;5.87;4.53;;;;;;;;;;5008297;28;20212;-66
2024/01/30 07:14:05;;;;;;;8.07;5.60;;;;;;;;;;5005114;28;20293;-67
2024/01/30 07:16:33;;;;;;;6.40;4.50;;;;;;;;;;5006029;28;20651;-66
2024/01/30 07:19:01;;;;;;;3.67;2.90;;;;;;;;;;4989977;28;20209;-66
2024/01/30 07:21:31;;;;;;;3.43;2.37;;;;;;;;;;5008194;28;20218;-66
2024/01/30 07:24:06;;;;;;;2.30;2.10;;;;;;;;;;5005317;28;20231;-66
2024/01/30 07:26:35;;;;;;;2.20;1.90;;;;;;;;;;5006545;28;20286;-65
2024/01/30 07:29:03;;;;;;;3.23;2.30;;;;;;;;;;5007287;28;20215;-63
2024/01/30 07:31:30;;;;;;;4.73;3.37;;;;;;;;;;5017379;28;20807;-67
2024/01/30 07:34:00;;;;;;;17.90;8.43;;;;;;;;;;4987851;28;20231;-65
2024/01/30 07:36:28;;;;;;;19.03;9.87;;;;;;;;;;5010438;28;20226;-66
2024/01/30 07:38:55;;;;;;;8.00;4.17;;;;;;;;;;4999889;28;20203;-66
2024/01/30 07:41:25;;;;;;;4.30;3.03;;;;;;;;;;5013904;28;20204;-66
2024/01/30 07:43:53;;;;;;;2.90;2.50;;;;;;;;;;5004865;28;20604;-67
2024/01/30 07:46:21;;;;;;;2.60;2.40;;;;;;;;;;5000508;28;20572;-65
2024/01/30 07:48:48;;;;;;;2.33;2.00;;;;;;;;;;4984007;28;20211;-66
2024/01/30 07:51:18;;;;;;;4.97;2.60;;;;;;;;;;5001530;28;20199;-65
2024/01/30 07:53:46;;;;;;;2.87;2.50;;;;;;;;;;5003138;28;20246;-66
2024/01/30 07:56:13;;;;;;;3.10;2.53;;;;;;;;;;5003952;28;20215;-65
2024/01/30 07:58:40;;;;;;;3.87;2.73;;;;;;;;;;4995122;28;20303;-65
2024/01/30 08:01:08;;;;;;;3.17;2.93;;;;;;;;;;4992763;28;20212;-66
2024/01/30 08:03:36;;;;;;;4.97;4.30;;;;;;;;;;5002153;28;20205;-65
2024/01/30 08:06:04;;;;;;;5.67;4.70;;;;;;;;;;5005311;28;20294;-69
2024/01/30 08:08:32;;;;;;;5.17;4.00;;;;;;;;;;5017140;28;20221;-67
2024/01/30 08:10:59;;;;;;;6.83;4.30;;;;;;;;;;5002670;28;20273;-66
2024/01/30 08:13:26;;;;;;;7.50;4.40;;;;;;;;;;5015958;28;20638;-67
2024/01/30 08:15:54;;;;;;;8.23;5.90;;;;;;;;;;5009498;28;20207;-68
2024/01/30 08:18:21;;;;;;;7.47;4.73;;;;;;;;;;5016857;28;20258;-66
2024/01/30 08:20:49;;;;;;;9.33;5.53;;;;;;;;;;5002323;28;20208;-65
2024/01/30 08:23:16;;;;;;;8.73;4.90;;;;;;;;;;4984572;28;20219;-65
2024/01/30 08:25:45;;;;;;;6.87;4.63;;;;;;;;;;4998723;28;20701;-67
2024/01/30 08:28:13;;;;;;;5.40;4.20;;;;;;;;;;4998042;28;20249;-67
2024/01/30 08:30:44;;;;;;;11.67;6.30;;;;;;;;;;4999649;28;20290;-67
2024/01/30 08:33:12;;;;;;;13.03;6.73;;;;;;;;;;4995605;28;20594;-65
2024/01/30 08:35:41;;;;;;;12.63;6.70;;;;;;;;;;5008274;28;20235;-66
2024/01/30 08:38:09;;;;;;;13.80;8.00;;;;;;;;;;5004180;28;20210;-66
2024/01/30 08:40:37;;;;;;;9.10;4.87;;;;;;;;;;5016683;28;20187;-67
2024/01/30 08:43:04;;;;;;;7.87;4.80;;;;;;;;;;5028117;28;22718;-65
2024/01/30 08:45:32;;;;;;;12.17;6.63;;;;;;;;;;5007555;28;20779;-64
2024/01/30 08:47:59;;;;;;;13.00;6.70;;;;;;;;;;5000428;28;20768;-68
2024/01/30 08:50:28;;;;;;;12.83;6.67;;;;;;;;;;5001463;28;20207;-67
2024/01/30 08:52:57;;;;;;;12.53;5.83;;;;;;;;;;5006365;28;20200;-67
2024/01/30 08:55:24;;;;;;;13.67;7.27;;;;;;;;;;5003002;28;20232;-66
2024/01/30 08:57:53;;;;;;;13.30;6.17;;;;;;;;;;5004684;28;20243;-65
2024/01/30 09:00:20;;;;;;;13.23;5.43;;;;;;;;;;5006200;28;20203;-66
2024/01/30 09:02:48;;;;;;;3.93;2.60;;;;;;;;;;5008861;28;20299;-67
2024/01/30 09:05:17;;;;;;;2.87;2.40;;;;;;;;;;4997112;28;20224;-67
2024/01/30 09:07:45;;;;;;;3.73;2.77;;;;;;;;;;4997575;28;20207;-65
2024/01/30 09:10:14;;;;;;;5.83;3.60;;;;;;;;;;5001865;28;20756;-67
2024/01/30 09:12:45;;;;;;;8.57;4.60;;;;;;;;;;5000764;28;20215;-66
2024/01/30 09:15:13;;;;;;;14.47;7.37;;;;;;;;;;4995689;28;20243;-66
2024/01/30 09:17:41;;;;;;;7.40;4.70;;;;;;;;;;4998326;28;20303;-66
2024/01/30 09:20:10;;;;;;;5.27;3.70;;;;;;;;;;5003935;28;20203;-66
2024/01/30 09:22:37;;;;;;;5.30;4.27;;;;;;;;;;5010539;28;20210;-67
2024/01/30 09:25:05;;;;;;;4.93;3.70;;;;;;;;;;4998769;28;20734;-67
2024/01/30 09:27:32;;;;;;;4.27;3.63;;;;;;;;;;5004128;28;20325;-66
2024/01/30 09:29:59;;;;;;;3.50;3.17;;;;;;;;;;5003274;28;20219;-65
2024/01/30 09:32:27;;;;;;;3.53;2.50;;;;;;;;;;5004806;28;20629;-67
2024/01/30 09:34:54;;;;;;;3.83;3.37;;;;;;;;;;5003589;28;20815;-67
2024/01/30 09:37:22;;;;;;;7.20;4.30;;;;;;;;;;5011973;28;20211;-65
2024/01/30 09:39:53;;;;;;;7.93;4.20;;;;;;;;;;5013946;28;20294;-67
2024/01/30 09:42:36;;;;;;;7.50;4.00;;;;;;;;;;5012040;28;20239;-68
2024/01/30 09:45:07;;;;;;;7.17;4.00;;;;;;;;;;5012839;28;20223;-65
2024/01/30 09:47:45;;;;;;;12.67;5.60;;;;;;;;;;5026869;28;20208;-65
2024/01/30 09:50:13;;;;;;;8.57;4.80;;;;;;;;;;5006135;28;20207;-66
2024/01/30 09:52:41;;;;;;;6.27;3.43;;;;;;;;;;5006105;28;20287;-66
2024/01/30 09:55:09;;;;;;;4.00;2.53;;;;;;;;;;5018602;28;20239;-67
2024/01/30 09:57:36;;;;;;;3.23;1.90;;;;;;;;;;5015804;28;20752;-67
2024/01/30 10:00:06;;;;;;;2.07;1.70;;;;;;;;;;5014715;28;20207;-67
2024/01/30 10:02:34;;;;;;;2.20;1.83;;;;;;;;;;4996693;28;20207;-67
2024/01/30 10:05:01;;;;;;;1.70;1.60;;;;;;;;;;5011487;28;20230;-65
2024/01/30 10:07:30;;;;;;;1.77;1.67;;;;;;;;;;5004725;28;20294;-67
2024/01/30 10:09:58;;;;;;;1.80;1.70;;;;;;;;;;5016058;28;20674;-66
2024/01/30 10:12:30;;;;;;;1.70;1.60;;;;;;;;;;5014570;28;20218;-67
2024/01/30 10:14:58;;;;;;;1.60;1.50;;;;;;;;;;5010638;28;20317;-67
2024/01/30 10:17:27;;;;;;;2.03;1.93;;;;;;;;;;5013202;28;20227;-67
2024/01/30 10:20:00;;;;;;;2.23;1.50;;;;;;;;;;5004446;28;20203;-67
2024/01/30 10:22:29;;;;;;;4.03;1.70;;;;;;;;;;4983880;28;20200;-66
2024/01/30 10:24:59;;;;;;;2.30;1.90;;;;;;;;;;5002400;28;20232;-67
2024/01/30 10:27:32;;;;;;;2.03;1.70;;;;;;;;;;5001761;28;20211;-67
2024/01/30 10:30:00;;;;;;;3.00;1.53;;;;;;;;;;5005339;28;20694;-67
2024/01/30 10:32:28;;;;;;;2.67;1.53;;;;;;;;;;5004579;28;20681;-67
2024/01/30 10:34:56;;;;;;;2.70;1.83;;;;;;;;;;5000261;28;20234;-65
2024/01/30 10:37:26;;;;;;;2.10;1.90;;;;;;;;;;5008051;28;20289;-67
2024/01/30 10:39:55;;;;;;;1.93;1.83;;;;;;;;;;4998059;28;20650;-66
2024/01/30 10:42:28;;;;;;;5.33;1.70;;;;;;;;;;5017187;28;20230;-65
2024/01/30 10:44:57;;;;;;;2.67;1.60;;;;;;;;;;5003469;28;20223;-65
2024/01/30 10:47:29;;;;;;;1.70;1.60;;;;;;;;;;5000489;28;20236;-66
2024/01/30 10:49:58;;;;;;;1.77;1.60;;;;;;;;;;5001425;28;20632;-66
2024/01/30 10:52:28;;;;;;;2.00;1.50;;;;;;;;;;4995480;28;20219;-66
2024/01/30 10:54:57;;;;;;;3.03;1.80;;;;;;;;;;5002614;28;20232;-66
2024/01/30 10:57:25;;;;;;;3.13;1.60;;;;;;;;;;5028422;28;20258;-66
2024/01/30 10:59:57;;;;;;;2.17;1.50;;;;;;;;;;5003943;28;20224;-66
2024/01/30 11:02:26;;;;;;;2.33;1.60;;;;;;;;;;4998915;28;20206;-67
2024/01/30 11:04:58;;;;;;;1.57;1.40;;;;;;;;;;5004441;28;20323;-65
2024/01/30 11:07:28;;;;;;;2.07;1.53;;;;;;;;;;4999867;28;20298;-65
2024/01/30 11:10:02;;;;;;;1.93;1.77;;;;;;;;;;4995014;28;20234;-65
2024/01/30 11:12:34;;;;;;;1.60;1.30;;;;;;;;;;5001976;28;20372;-65
2024/01/30 11:15:05;;;;;;;2.30;2.03;;;;;;;;;;5021954;28;20266;-67
2024/01/30 11:17:43;;;;;;;2.83;2.40;;;;;;;;;;5008769;28;20207;-66
2024/01/30 11:20:11;;;;;;;1.80;1.70;;;;;;;;;;4988588;28;20247;-66
2024/01/30 11:22:41;;;;;;;1.90;1.70;;;;;;;;;;5000104;28;20211;-67
2024/01/30 11:25:11;;;;;;;3.20;1.70;;;;;;;;;;5000142;28;20232;-66
2024/01/30 11:27:39;;;;;;;4.47;1.73;;;;;;;;;;4995729;28;20211;-67
2024/01/30 11:30:07;;;;;;;4.07;1.90;;;;;;;;;;4996155;28;20208;-65
2024/01/30 11:32:35;;;;;;;1.83;1.70;;;;;;;;;;5014309;28;20581;-66
2024/01/30 11:35:06;;;;;;;1.60;1.50;;;;;;;;;;5007834;28;20254;-67
2024/01/30 11:37:37;;;;;;;3.60;2.00;;;;;;;;;;5006263;28;20215;-68
2024/01/30 11:40:05;;;;;;;1.60;1.50;;;;;;;;;;5001660;28;20279;-66
2024/01/30 11:42:34;;;;;;;2.27;1.90;;;;;;;;;;5006764;28;20212;-68
2024/01/30 11:45:02;;;;;;;2.20;2.00;;;;;;;;;;5009850;28;20236;-67
2024/01/30 11:47:30;;;;;;;1.83;1.73;;;;;;;;;;5007030;28;20223;-66
2024/01/30 11:49:58;;;;;;;2.27;1.80;;;;;;;;;;5001543;28;20727;-67
2024/01/30 11:52:27;;;;;;;3.43;1.83;;;;;;;;;;4983158;28;20203;-68
2024/01/30 11:54:55;;;;;;;1.83;1.60;;;;;;;;;;4966128;28;20231;-66
2024/01/30 11:57:22;;;;;;;2.10;1.90;;;;;;;;;;4973306;28;20228;-65
2024/01/30 11:59:49;;;;;;;2.60;1.70;;;;;;;;;;5000870;28;20433;-66
2024/01/30 12:02:17;;;;;;;1.87;1.70;;;;;;;;;;4984780;28;20200;-65
2024/01/30 12:04:45;;;;;;;1.97;1.80;;;;;;;;;;4988126;28;20254;-64
2024/01/30 12:07:15;;;;;;;2.20;1.93;;;;;;;;;;4977822;28;20219;-66
2024/01/30 12:09:43;;;;;;;2.33;2.03;;;;;;;;;;4970398;28;20216;-66
2024/01/30 12:12:11;;;;;;;2.37;1.73;;;;;;;;;;4982908;28;20678;-67
2024/01/30 12:14:40;;;;;;;3.07;2.10;;;;;;;;;;4977198;28;20452;-65
2024/01/30 12:17:23;;;;;;;2.30;2.10;;;;;;;;;;5052752;28;20708;-66
2024/01/30 12:19:51;;;;;;;2.20;2.00;;;;;;;;;;5041037;28;20243;-67
2024/01/30 12:22:18;;;;;;;2.73;2.10;;;;;;;;;;5027223;28;20202;-68
2024/01/30 12:24:45;;;;;;;2.23;2.10;;;;;;;;;;5015335;28;20229;-66
2024/01/30 12:27:15;;;;;;;2.67;2.00;;;;;;;;;;5028805;28;20240;-66
2024/01/30 12:29:43;;;;;;;2.83;2.07;;;;;;;;;;5023637;28;20221;-66
2024/01/30 12:32:16;;;;;;;5.13;2.70;;;;;;;;;;5013084;28;20237;-68
2024/01/30 12:34:44;;;;;;;3.63;2.47;;;;;;;;;;5018215;28;21278;-67
2024/01/30 12:37:26;;;;;;;3.20;2.67;;;;;;;;;;5020159;28;20206;-66
2024/01/30 12:39:54;;;;;;;2.63;2.43;;;;;;;;;;5014817;28;20576;-66
2024/01/30 12:42:22;;;;;;;2.90;2.50;;;;;;;;;;5020569;28;20199;-67
2024/01/30 12:44:50;;;;;;;5.40;3.07;;;;;;;;;;5030818;28;20276;-67
2024/01/30 12:47:17;;;;;;;4.20;2.70;;;;;;;;;;5011904;28;20211;-67
2024/01/30 12:49:45;;;;;;;3.17;2.50;;;;;;;;;;5012778;28;20198;-66
2024/01/30 12:52:13;;;;;;;2.97;2.77;;;;;;;;;;5017994;28;20206;-66
2024/01/30 12:54:41;;;;;;;4.77;2.57;;;;;;;;;;5016723;28;20593;-65
2024/01/30 12:57:08;;;;;;;3.67;2.57;;;;;;;;;;5029990;28;20283;-67
2024/01/30 12:59:36;;;;;;;5.43;3.10;;;;;;;;;;5039202;28;20207;-66
2024/01/30 13:02:03;;;;;;;2.77;2.50;;;;;;;;;;5016544;28;20206;-67
2024/01/30 13:04:31;;;;;;;3.93;2.60;;;;;;;;;;5016216;28;20711;-65
2024/01/30 13:07:00;;;;;;;2.70;2.50;;;;;;;;;;5015271;28;20242;-67
2024/01/30 13:09:27;;;;;;;3.47;2.53;;;;;;;;;;5016411;28;20212;-66
2024/01/30 13:11:54;;;;;;;2.73;2.47;;;;;;;;;;5019221;28;20731;-65
2024/01/30 13:14:22;;;;;;;3.13;2.83;;;;;;;;;;5025199;28;20219;-66
2024/01/30 13:16:49;;;;;;;2.70;2.50;;;;;;;;;;5024524;28;20703;-66
2024/01/30 13:19:17;;;;;;;3.77;2.80;;;;;;;;;;5028781;28;20615;-67
2024/01/30 13:21:44;;;;;;;4.07;2.58;;;;;;;;;;5034188;28;20661;-65
2024/01/30 13:24:12;;;;;;;5.07;3.50;;;;;;;;;;5028978;28;20312;-65
2024/01/30 13:26:39;;;;;;;4.18;3.03;;;;;;;;;;5012877;28;20857;-67
2024/01/30 13:29:07;;;;;;;4.63;2.78;;;;;;;;;;5005854;28;20742;-66
2024/01/30 13:31:34;;;;;;;3.28;2.60;;;;;;;;;;5018222;28;20658;-65
2024/01/30 13:34:02;;;;;;;2.92;2.50;;;;;;;;;;5018424;28;20645;-66
2024/01/30 13:36:33;;;;;;;2.88;2.65;;;;;;;;;;5022907;28;20697;-67
2024/01/30 13:39:01;;;;;;;3.78;2.53;;;;;;;;;;5022199;28;20881;-67
2024/01/30 13:41:29;;;;;;;3.03;2.67;;;;;;;;;;5013257;28;20618;-64
2024/01/30 13:43:57;;;;;;;3.30;2.58;;;;;;;;;;5015945;28;20237;-67
2024/01/30 13:46:24;;;;;;;5.03;3.13;;;;;;;;;;5025820;28;20602;-66
2024/01/30 13:48:53;;;;;;;4.68;3.05;;;;;;;;;;5017417;28;20261;-65
2024/01/30 13:51:20;;;;;;;3.45;3.03;;;;;;;;;;5024066;28;20570;-67
2024/01/30 13:53:47;;;;;;;6.00;3.25;;;;;;;;;;5017726;28;20641;-66
2024/01/30 13:56:15;;;;;;;3.78;3.28;;;;;;;;;;5016107;28;20662;-66
2024/01/30 13:58:42;;;;;;;4.68;3.35;;;;;;;;;;5021592;28;20203;-65
2024/01/30 14:01:10;;;;;;;6.05;3.10;;;;;;;;;;5022422;28;20210;-67
2024/01/30 14:03:37;;;;;;;4.00;3.25;;;;;;;;;;5021472;28;20513;-65
2024/01/30 14:06:04;;;;;;;4.55;3.85;;;;;;;;;;5015280;28;20223;-66
2024/01/30 14:08:32;;;;;;;4.53;3.60;;;;;;;;;;5020021;28;20579;-66
2024/01/30 14:11:00;;;;;;;5.10;3.67;;;;;;;;;;5016614;28;20227;-66
2024/01/30 14:13:27;;;;;;;3.77;3.37;;;;;;;;;;5016403;28;20214;-65
2024/01/30 14:15:55;;;;;;;4.73;4.10;;;;;;;;;;5018796;28;20318;-65
2024/01/30 14:18:22;;;;;;;6.73;4.37;;;;;;;;;;5018762;28;20762;-66
2024/01/30 14:20:50;;;;;;;4.60;4.10;;;;;;;;;;5025096;28;20195;-66
2024/01/30 14:23:18;;;;;;;6.67;3.97;;;;;;;;;;5009784;28;20206;-67
2024/01/30 14:25:45;;;;;;;4.43;4.03;;;;;;;;;;5021792;28;20249;-66
2024/01/30 14:28:13;;;;;;;6.13;4.33;;;;;;;;;;5019928;28;20218;-67
2024/01/30 14:30:40;;;;;;;4.63;3.93;;;;;;;;;;5018615;28;20302;-68
2024/01/30 14:33:07;;;;;;;6.67;4.60;;;;;;;;;;5006407;28;20202;-66
2024/01/30 14:35:35;;;;;;;5.57;4.07;;;;;;;;;;5000599;28;20701;-67
2024/01/30 14:38:04;;;;;;;5.07;4.20;;;;;;;;;;4996923;28;20688;-66
2024/01/30 14:40:33;;;;;;;5.60;4.53;;;;;;;;;;5003453;28;20203;-66
2024/01/30 14:43:00;;;;;;;6.67;4.40;;;;;;;;;;5010233;28;20231;-67
2024/01/30 14:45:28;;;;;;;7.13;4.20;;;;;;;;;;4998288;28;20223;-65